sensor_id;sensor_type;location;lat;lon;timestamp;P1;durP1;ratioP1;P2;durP2;ratioP2
67065;SDS011;53978;43.846;25.952;2022-12-07T00:01:11;11.25;;;5.18;;
67065;SDS011;53978;43.846;25.952;2022-12-07T00:03:38;11.13;;;5.07;;
67065;SDS011;53978;43.846;25.952;2022-12-07T00:06:05;9.85;;;4.63;;
67065;SDS011;53978;43.846;25.952;2022-12-07T00:08:31;11.85;;;5.45;;
67065;SDS011;53978;43.846;25.952;2022-12-07T00:11:01;14.10;;;5.90;;
67065;SDS011;53978;43.846;25.952;2022-12-07T00:13:28;10.10;;;4.88;;
67065;SDS011;53978;43.846;25.952;2022-12-07T00:15:59;9.63;;;4.70;;
67065;SDS011;53978;43.846;25.952;2022-12-07T00:18:28;8.93;;;4.38;;
67065;SDS011;53978;43.846;25.952;2022-12-07T00:20:58;10.98;;;5.15;;
67065;SDS011;53978;43.846;25.952;2022-12-07T00:23:27;11.57;;;5.07;;
67065;SDS011;53978;43.846;25.952;2022-12-07T00:25:53;13.43;;;5.00;;
67065;SDS011;53978;43.846;25.952;2022-12-07T00:28:18;11.73;;;5.70;;
67065;SDS011;53978;43.846;25.952;2022-12-07T00:30:44;12.85;;;5.15;;
67065;SDS011;53978;43.846;25.952;2022-12-07T00:33:09;10.55;;;5.40;;
67065;SDS011;53978;43.846;25.952;2022-12-07T00:35:34;12.43;;;5.75;;
67065;SDS011;53978;43.846;25.952;2022-12-07T00:38:00;16.73;;;5.88;;
67065;SDS011;53978;43.846;25.952;2022-12-07T00:40:25;12.88;;;5.45;;
67065;SDS011;53978;43.846;25.952;2022-12-07T00:42:50;13.50;;;5.90;;
67065;SDS011;53978;43.846;25.952;2022-12-07T00:45:16;14.30;;;5.30;;
67065;SDS011;53978;43.846;25.952;2022-12-07T00:47:41;10.52;;;5.00;;
67065;SDS011;53978;43.846;25.952;2022-12-07T00:50:07;16.23;;;5.88;;
67065;SDS011;53978;43.846;25.952;2022-12-07T00:52:32;12.00;;;5.63;;
67065;SDS011;53978;43.846;25.952;2022-12-07T00:54:57;10.60;;;5.47;;
67065;SDS011;53978;43.846;25.952;2022-12-07T00:57:23;12.05;;;5.47;;
67065;SDS011;53978;43.846;25.952;2022-12-07T00:59:48;11.50;;;5.10;;
67065;SDS011;53978;43.846;25.952;2022-12-07T01:02:14;12.48;;;5.63;;
67065;SDS011;53978;43.846;25.952;2022-12-07T01:04:39;13.15;;;5.43;;
67065;SDS011;53978;43.846;25.952;2022-12-07T01:07:04;16.63;;;5.82;;
67065;SDS011;53978;43.846;25.952;2022-12-07T01:09:30;13.98;;;5.43;;
67065;SDS011;53978;43.846;25.952;2022-12-07T01:11:55;10.25;;;5.28;;
67065;SDS011;53978;43.846;25.952;2022-12-07T01:14:23;11.45;;;5.30;;
67065;SDS011;53978;43.846;25.952;2022-12-07T01:16:48;9.25;;;4.90;;
67065;SDS011;53978;43.846;25.952;2022-12-07T01:19:14;11.20;;;5.47;;
67065;SDS011;53978;43.846;25.952;2022-12-07T01:21:39;10.70;;;5.05;;
67065;SDS011;53978;43.846;25.952;2022-12-07T01:24:08;9.45;;;5.10;;
67065;SDS011;53978;43.846;25.952;2022-12-07T01:26:34;11.68;;;5.63;;
67065;SDS011;53978;43.846;25.952;2022-12-07T01:29:00;11.90;;;5.38;;
67065;SDS011;53978;43.846;25.952;2022-12-07T01:31:26;12.38;;;4.97;;
67065;SDS011;53978;43.846;25.952;2022-12-07T01:33:53;16.90;;;5.53;;
67065;SDS011;53978;43.846;25.952;2022-12-07T01:36:23;12.02;;;5.30;;
67065;SDS011;53978;43.846;25.952;2022-12-07T01:38:50;10.18;;;5.30;;
67065;SDS011;53978;43.846;25.952;2022-12-07T01:41:17;12.13;;;5.80;;
67065;SDS011;53978;43.846;25.952;2022-12-07T01:46:44;11.13;;;5.45;;
67065;SDS011;53978;43.846;25.952;2022-12-07T01:49:12;10.25;;;5.25;;
67065;SDS011;53978;43.846;25.952;2022-12-07T01:51:50;9.77;;;4.97;;
67065;SDS011;53978;43.846;25.952;2022-12-07T01:54:17;10.45;;;5.03;;
67065;SDS011;53978;43.846;25.952;2022-12-07T01:56:47;10.15;;;5.40;;
67065;SDS011;53978;43.846;25.952;2022-12-07T01:59:16;10.55;;;5.18;;
67065;SDS011;53978;43.846;25.952;2022-12-07T02:01:42;10.23;;;4.75;;
67065;SDS011;53978;43.846;25.952;2022-12-07T02:04:08;11.52;;;5.03;;
67065;SDS011;53978;43.846;25.952;2022-12-07T02:06:34;11.27;;;5.38;;
67065;SDS011;53978;43.846;25.952;2022-12-07T02:09:00;10.80;;;5.28;;
67065;SDS011;53978;43.846;25.952;2022-12-07T02:11:25;9.25;;;4.82;;
67065;SDS011;53978;43.846;25.952;2022-12-07T02:13:51;10.75;;;4.95;;
67065;SDS011;53978;43.846;25.952;2022-12-07T02:22:42;9.63;;;4.35;;
67065;SDS011;53978;43.846;25.952;2022-12-07T02:28:29;10.63;;;5.25;;
67065;SDS011;53978;43.846;25.952;2022-12-07T02:30:58;12.60;;;4.53;;
67065;SDS011;53978;43.846;25.952;2022-12-07T02:33:31;8.85;;;5.15;;
67065;SDS011;53978;43.846;25.952;2022-12-07T02:35:59;11.55;;;5.15;;
67065;SDS011;53978;43.846;25.952;2022-12-07T02:41:12;13.13;;;5.40;;
67065;SDS011;53978;43.846;25.952;2022-12-07T02:43:49;11.38;;;5.35;;
67065;SDS011;53978;43.846;25.952;2022-12-07T02:46:18;13.23;;;5.47;;
67065;SDS011;53978;43.846;25.952;2022-12-07T02:48:46;15.32;;;5.85;;
67065;SDS011;53978;43.846;25.952;2022-12-07T02:51:12;12.25;;;5.55;;
67065;SDS011;53978;43.846;25.952;2022-12-07T02:53:42;11.35;;;5.35;;
67065;SDS011;53978;43.846;25.952;2022-12-07T03:18:37;15.18;;;5.88;;
67065;SDS011;53978;43.846;25.952;2022-12-07T03:21:05;14.88;;;5.93;;
67065;SDS011;53978;43.846;25.952;2022-12-07T03:23:34;11.73;;;5.43;;
67065;SDS011;53978;43.846;25.952;2022-12-07T03:26:00;16.73;;;5.97;;
67065;SDS011;53978;43.846;25.952;2022-12-07T03:28:35;14.95;;;5.78;;
67065;SDS011;53978;43.846;25.952;2022-12-07T03:31:13;17.35;;;5.53;;
67065;SDS011;53978;43.846;25.952;2022-12-07T03:38:54;12.45;;;5.07;;
67065;SDS011;53978;43.846;25.952;2022-12-07T03:41:27;15.48;;;5.55;;
67065;SDS011;53978;43.846;25.952;2022-12-07T03:43:54;12.40;;;5.00;;
67065;SDS011;53978;43.846;25.952;2022-12-07T03:46:22;14.85;;;5.22;;
67065;SDS011;53978;43.846;25.952;2022-12-07T03:48:59;14.32;;;5.40;;
67065;SDS011;53978;43.846;25.952;2022-12-07T03:51:46;12.48;;;5.07;;
67065;SDS011;53978;43.846;25.952;2022-12-07T03:57:14;17.10;;;5.30;;
67065;SDS011;53978;43.846;25.952;2022-12-07T03:59:40;13.48;;;5.22;;
67065;SDS011;53978;43.846;25.952;2022-12-07T04:02:07;13.05;;;5.75;;
67065;SDS011;53978;43.846;25.952;2022-12-07T04:04:33;14.25;;;6.00;;
67065;SDS011;53978;43.846;25.952;2022-12-07T04:06:59;16.70;;;6.20;;
67065;SDS011;53978;43.846;25.952;2022-12-07T04:09:25;12.73;;;6.50;;
67065;SDS011;53978;43.846;25.952;2022-12-07T04:11:50;12.38;;;6.15;;
67065;SDS011;53978;43.846;25.952;2022-12-07T04:14:18;14.23;;;6.82;;
67065;SDS011;53978;43.846;25.952;2022-12-07T04:16:44;15.63;;;5.90;;
67065;SDS011;53978;43.846;25.952;2022-12-07T04:19:14;15.32;;;6.63;;
67065;SDS011;53978;43.846;25.952;2022-12-07T04:21:40;12.82;;;6.80;;
67065;SDS011;53978;43.846;25.952;2022-12-07T04:24:06;15.40;;;6.25;;
67065;SDS011;53978;43.846;25.952;2022-12-07T04:26:32;12.73;;;6.30;;
67065;SDS011;53978;43.846;25.952;2022-12-07T04:28:57;15.77;;;5.93;;
67065;SDS011;53978;43.846;25.952;2022-12-07T04:31:23;12.60;;;5.70;;
67065;SDS011;53978;43.846;25.952;2022-12-07T04:33:48;13.07;;;6.30;;
67065;SDS011;53978;43.846;25.952;2022-12-07T04:36:14;16.60;;;7.10;;
67065;SDS011;53978;43.846;25.952;2022-12-07T04:38:39;16.50;;;6.53;;
67065;SDS011;53978;43.846;25.952;2022-12-07T04:41:08;13.88;;;6.60;;
67065;SDS011;53978;43.846;25.952;2022-12-07T04:43:34;17.00;;;7.68;;
67065;SDS011;53978;43.846;25.952;2022-12-07T04:46:00;18.02;;;6.95;;
67065;SDS011;53978;43.846;25.952;2022-12-07T04:48:26;14.02;;;6.32;;
67065;SDS011;53978;43.846;25.952;2022-12-07T04:50:51;11.68;;;6.28;;
67065;SDS011;53978;43.846;25.952;2022-12-07T04:53:17;18.13;;;6.63;;
67065;SDS011;53978;43.846;25.952;2022-12-07T04:55:43;13.10;;;5.63;;
67065;SDS011;53978;43.846;25.952;2022-12-07T04:58:09;16.73;;;6.20;;
67065;SDS011;53978;43.846;25.952;2022-12-07T05:00:35;15.18;;;6.75;;
67065;SDS011;53978;43.846;25.952;2022-12-07T05:03:00;13.80;;;6.40;;
67065;SDS011;53978;43.846;25.952;2022-12-07T05:05:25;15.25;;;6.15;;
67065;SDS011;53978;43.846;25.952;2022-12-07T05:07:51;19.55;;;7.05;;
67065;SDS011;53978;43.846;25.952;2022-12-07T05:10:16;16.77;;;6.32;;
67065;SDS011;53978;43.846;25.952;2022-12-07T05:12:42;13.77;;;6.53;;
67065;SDS011;53978;43.846;25.952;2022-12-07T05:15:07;14.00;;;6.18;;
67065;SDS011;53978;43.846;25.952;2022-12-07T05:17:33;16.13;;;6.78;;
67065;SDS011;53978;43.846;25.952;2022-12-07T05:19:58;14.35;;;6.65;;
67065;SDS011;53978;43.846;25.952;2022-12-07T05:22:23;15.02;;;6.40;;
67065;SDS011;53978;43.846;25.952;2022-12-07T05:24:53;17.00;;;7.20;;
67065;SDS011;53978;43.846;25.952;2022-12-07T05:27:19;14.77;;;6.32;;
67065;SDS011;53978;43.846;25.952;2022-12-07T05:29:44;16.95;;;7.03;;
67065;SDS011;53978;43.846;25.952;2022-12-07T05:32:09;17.92;;;6.93;;
67065;SDS011;53978;43.846;25.952;2022-12-07T05:34:35;16.55;;;7.00;;
67065;SDS011;53978;43.846;25.952;2022-12-07T05:37:00;13.90;;;6.18;;
67065;SDS011;53978;43.846;25.952;2022-12-07T05:39:25;16.83;;;6.30;;
67065;SDS011;53978;43.846;25.952;2022-12-07T05:41:51;18.13;;;7.10;;
67065;SDS011;53978;43.846;25.952;2022-12-07T05:44:35;12.18;;;6.35;;
67065;SDS011;53978;43.846;25.952;2022-12-07T05:47:00;21.80;;;7.97;;
67065;SDS011;53978;43.846;25.952;2022-12-07T05:49:26;22.27;;;8.35;;
67065;SDS011;53978;43.846;25.952;2022-12-07T05:51:51;16.73;;;6.78;;
67065;SDS011;53978;43.846;25.952;2022-12-07T05:54:17;17.23;;;7.15;;
67065;SDS011;53978;43.846;25.952;2022-12-07T05:56:42;15.77;;;7.60;;
67065;SDS011;53978;43.846;25.952;2022-12-07T05:59:08;15.60;;;7.40;;
67065;SDS011;53978;43.846;25.952;2022-12-07T06:01:54;17.30;;;7.95;;
67065;SDS011;53978;43.846;25.952;2022-12-07T06:04:28;16.55;;;7.25;;
67065;SDS011;53978;43.846;25.952;2022-12-07T06:06:56;20.65;;;8.18;;
67065;SDS011;53978;43.846;25.952;2022-12-07T06:09:22;19.58;;;8.50;;
67065;SDS011;53978;43.846;25.952;2022-12-07T06:11:49;19.70;;;9.65;;
67065;SDS011;53978;43.846;25.952;2022-12-07T06:14:33;16.38;;;7.97;;
67065;SDS011;53978;43.846;25.952;2022-12-07T06:16:58;17.63;;;9.45;;
67065;SDS011;53978;43.846;25.952;2022-12-07T06:19:24;19.40;;;8.30;;
67065;SDS011;53978;43.846;25.952;2022-12-07T06:21:50;15.52;;;6.72;;
67065;SDS011;53978;43.846;25.952;2022-12-07T06:24:16;16.50;;;7.93;;
67065;SDS011;53978;43.846;25.952;2022-12-07T06:26:41;16.23;;;8.23;;
67065;SDS011;53978;43.846;25.952;2022-12-07T06:29:07;23.17;;;8.38;;
67065;SDS011;53978;43.846;25.952;2022-12-07T06:31:33;15.55;;;7.18;;
67065;SDS011;53978;43.846;25.952;2022-12-07T06:33:59;15.70;;;7.53;;
67065;SDS011;53978;43.846;25.952;2022-12-07T06:36:25;16.92;;;7.32;;
67065;SDS011;53978;43.846;25.952;2022-12-07T06:38:50;12.70;;;6.57;;
67065;SDS011;53978;43.846;25.952;2022-12-07T06:41:16;18.13;;;7.38;;
67065;SDS011;53978;43.846;25.952;2022-12-07T06:43:41;13.40;;;6.57;;
67065;SDS011;53978;43.846;25.952;2022-12-07T06:46:07;15.15;;;6.25;;
67065;SDS011;53978;43.846;25.952;2022-12-07T06:48:32;16.33;;;6.80;;
67065;SDS011;53978;43.846;25.952;2022-12-07T06:50:58;18.27;;;7.00;;
67065;SDS011;53978;43.846;25.952;2022-12-07T06:53:23;10.20;;;6.30;;
67065;SDS011;53978;43.846;25.952;2022-12-07T06:55:48;17.00;;;8.05;;
67065;SDS011;53978;43.846;25.952;2022-12-07T06:58:14;14.88;;;7.47;;
67065;SDS011;53978;43.846;25.952;2022-12-07T07:00:39;8.15;;;5.28;;
67065;SDS011;53978;43.846;25.952;2022-12-07T07:03:05;13.85;;;6.45;;
67065;SDS011;53978;43.846;25.952;2022-12-07T07:05:31;8.50;;;5.07;;
67065;SDS011;53978;43.846;25.952;2022-12-07T07:07:56;10.07;;;4.90;;
67065;SDS011;53978;43.846;25.952;2022-12-07T07:10:24;9.40;;;5.20;;
67065;SDS011;53978;43.846;25.952;2022-12-07T07:12:49;10.23;;;6.13;;
67065;SDS011;53978;43.846;25.952;2022-12-07T07:15:15;12.35;;;5.63;;
67065;SDS011;53978;43.846;25.952;2022-12-07T07:17:40;8.40;;;5.47;;
67065;SDS011;53978;43.846;25.952;2022-12-07T07:20:06;9.55;;;5.53;;
67065;SDS011;53978;43.846;25.952;2022-12-07T07:22:31;16.55;;;6.03;;
67065;SDS011;53978;43.846;25.952;2022-12-07T07:24:57;13.23;;;6.35;;
67065;SDS011;53978;43.846;25.952;2022-12-07T07:27:22;12.65;;;6.57;;
67065;SDS011;53978;43.846;25.952;2022-12-07T07:29:48;14.10;;;6.25;;
67065;SDS011;53978;43.846;25.952;2022-12-07T07:32:13;14.57;;;6.45;;
67065;SDS011;53978;43.846;25.952;2022-12-07T07:34:39;12.07;;;6.57;;
67065;SDS011;53978;43.846;25.952;2022-12-07T07:37:04;14.38;;;6.20;;
67065;SDS011;53978;43.846;25.952;2022-12-07T07:39:30;12.80;;;6.50;;
67065;SDS011;53978;43.846;25.952;2022-12-07T07:41:55;13.55;;;6.50;;
67065;SDS011;53978;43.846;25.952;2022-12-07T07:44:20;16.45;;;7.03;;
67065;SDS011;53978;43.846;25.952;2022-12-07T07:46:46;13.95;;;6.70;;
67065;SDS011;53978;43.846;25.952;2022-12-07T07:49:12;11.95;;;7.05;;
67065;SDS011;53978;43.846;25.952;2022-12-07T07:51:37;17.15;;;7.82;;
67065;SDS011;53978;43.846;25.952;2022-12-07T07:54:03;12.63;;;7.47;;
67065;SDS011;53978;43.846;25.952;2022-12-07T07:56:28;16.30;;;7.75;;
67065;SDS011;53978;43.846;25.952;2022-12-07T07:58:54;15.10;;;7.57;;
67065;SDS011;53978;43.846;25.952;2022-12-07T08:01:20;11.70;;;6.40;;
67065;SDS011;53978;43.846;25.952;2022-12-07T08:03:46;11.63;;;6.93;;
67065;SDS011;53978;43.846;25.952;2022-12-07T08:06:11;11.80;;;6.00;;
67065;SDS011;53978;43.846;25.952;2022-12-07T08:08:37;9.50;;;5.07;;
67065;SDS011;53978;43.846;25.952;2022-12-07T08:11:06;9.73;;;5.13;;
67065;SDS011;53978;43.846;25.952;2022-12-07T08:13:34;8.73;;;5.40;;
67065;SDS011;53978;43.846;25.952;2022-12-07T08:16:04;11.25;;;5.30;;
67065;SDS011;53978;43.846;25.952;2022-12-07T08:18:30;9.52;;;4.90;;
67065;SDS011;53978;43.846;25.952;2022-12-07T08:20:59;9.93;;;5.57;;
67065;SDS011;53978;43.846;25.952;2022-12-07T08:23:26;12.73;;;5.45;;
67065;SDS011;53978;43.846;25.952;2022-12-07T08:25:51;9.98;;;5.65;;
67065;SDS011;53978;43.846;25.952;2022-12-07T08:28:17;10.88;;;5.38;;
67065;SDS011;53978;43.846;25.952;2022-12-07T08:30:42;11.15;;;5.65;;
67065;SDS011;53978;43.846;25.952;2022-12-07T08:33:08;10.45;;;5.47;;
67065;SDS011;53978;43.846;25.952;2022-12-07T08:35:35;10.82;;;6.25;;
67065;SDS011;53978;43.846;25.952;2022-12-07T08:38:00;9.98;;;5.30;;
67065;SDS011;53978;43.846;25.952;2022-12-07T08:40:27;11.85;;;5.03;;
67065;SDS011;53978;43.846;25.952;2022-12-07T08:42:53;10.80;;;5.50;;
67065;SDS011;53978;43.846;25.952;2022-12-07T08:45:19;10.98;;;6.05;;
67065;SDS011;53978;43.846;25.952;2022-12-07T08:47:48;10.30;;;5.85;;
67065;SDS011;53978;43.846;25.952;2022-12-07T08:50:18;10.95;;;5.25;;
67065;SDS011;53978;43.846;25.952;2022-12-07T08:52:46;11.25;;;6.50;;
67065;SDS011;53978;43.846;25.952;2022-12-07T08:55:14;12.32;;;5.95;;
67065;SDS011;53978;43.846;25.952;2022-12-07T08:57:39;11.07;;;6.00;;
67065;SDS011;53978;43.846;25.952;2022-12-07T09:00:05;11.27;;;5.53;;
67065;SDS011;53978;43.846;25.952;2022-12-07T09:02:32;13.10;;;6.85;;
67065;SDS011;53978;43.846;25.952;2022-12-07T09:04:57;10.23;;;6.20;;
67065;SDS011;53978;43.846;25.952;2022-12-07T09:07:23;11.63;;;6.85;;
67065;SDS011;53978;43.846;25.952;2022-12-07T09:09:49;13.88;;;7.10;;
67065;SDS011;53978;43.846;25.952;2022-12-07T09:12:14;12.00;;;6.20;;
67065;SDS011;53978;43.846;25.952;2022-12-07T09:14:40;13.52;;;6.55;;
67065;SDS011;53978;43.846;25.952;2022-12-07T09:17:09;9.70;;;5.57;;
67065;SDS011;53978;43.846;25.952;2022-12-07T09:19:35;11.13;;;6.07;;
67065;SDS011;53978;43.846;25.952;2022-12-07T09:22:02;10.82;;;5.78;;
67065;SDS011;53978;43.846;25.952;2022-12-07T09:24:28;9.05;;;5.80;;
67065;SDS011;53978;43.846;25.952;2022-12-07T09:26:53;11.57;;;5.30;;
67065;SDS011;53978;43.846;25.952;2022-12-07T09:29:18;8.77;;;5.10;;
67065;SDS011;53978;43.846;25.952;2022-12-07T09:31:44;8.70;;;5.40;;
67065;SDS011;53978;43.846;25.952;2022-12-07T09:34:09;8.02;;;5.22;;
67065;SDS011;53978;43.846;25.952;2022-12-07T09:36:36;8.05;;;5.05;;
67065;SDS011;53978;43.846;25.952;2022-12-07T09:39:01;9.82;;;4.40;;
67065;SDS011;53978;43.846;25.952;2022-12-07T09:41:27;10.05;;;5.93;;
67065;SDS011;53978;43.846;25.952;2022-12-07T09:43:57;9.75;;;5.28;;
67065;SDS011;53978;43.846;25.952;2022-12-07T09:46:27;8.48;;;5.03;;
67065;SDS011;53978;43.846;25.952;2022-12-07T09:48:53;9.63;;;4.63;;
67065;SDS011;53978;43.846;25.952;2022-12-07T09:51:20;12.85;;;5.38;;
67065;SDS011;53978;43.846;25.952;2022-12-07T09:53:46;10.93;;;5.22;;
67065;SDS011;53978;43.846;25.952;2022-12-07T09:56:16;10.02;;;5.50;;
67065;SDS011;53978;43.846;25.952;2022-12-07T09:58:42;12.73;;;5.93;;
67065;SDS011;53978;43.846;25.952;2022-12-07T10:03:37;7.85;;;4.65;;
67065;SDS011;53978;43.846;25.952;2022-12-07T10:06:04;7.63;;;4.55;;
67065;SDS011;53978;43.846;25.952;2022-12-07T10:08:30;11.13;;;5.68;;
67065;SDS011;53978;43.846;25.952;2022-12-07T10:10:56;7.35;;;5.22;;
67065;SDS011;53978;43.846;25.952;2022-12-07T10:13:33;8.98;;;4.90;;
67065;SDS011;53978;43.846;25.952;2022-12-07T10:18:57;6.32;;;4.40;;
67065;SDS011;53978;43.846;25.952;2022-12-07T10:21:47;10.27;;;4.80;;
67065;SDS011;53978;43.846;25.952;2022-12-07T10:24:46;10.02;;;5.55;;
67065;SDS011;53978;43.846;25.952;2022-12-07T10:27:22;10.02;;;5.35;;
67065;SDS011;53978;43.846;25.952;2022-12-07T10:29:52;10.13;;;5.10;;
67065;SDS011;53978;43.846;25.952;2022-12-07T10:34:43;8.27;;;4.78;;
67065;SDS011;53978;43.846;25.952;2022-12-07T10:39:45;7.65;;;4.78;;
67065;SDS011;53978;43.846;25.952;2022-12-07T10:42:24;9.25;;;4.97;;
67065;SDS011;53978;43.846;25.952;2022-12-07T10:58:38;10.25;;;5.97;;
67065;SDS011;53978;43.846;25.952;2022-12-07T11:01:21;11.13;;;5.90;;
67065;SDS011;53978;43.846;25.952;2022-12-07T11:15:19;9.68;;;5.28;;
67065;SDS011;53978;43.846;25.952;2022-12-07T11:17:56;9.13;;;5.05;;
67065;SDS011;53978;43.846;25.952;2022-12-07T11:37:01;10.60;;;5.50;;
67065;SDS011;53978;43.846;25.952;2022-12-07T11:39:33;9.25;;;5.65;;
67065;SDS011;53978;43.846;25.952;2022-12-07T11:42:06;10.32;;;5.75;;
67065;SDS011;53978;43.846;25.952;2022-12-07T11:44:39;10.32;;;5.68;;
67065;SDS011;53978;43.846;25.952;2022-12-07T11:47:28;9.13;;;5.80;;
67065;SDS011;53978;43.846;25.952;2022-12-07T11:50:11;9.88;;;5.97;;
67065;SDS011;53978;43.846;25.952;2022-12-07T11:52:44;8.27;;;5.32;;
67065;SDS011;53978;43.846;25.952;2022-12-07T11:55:24;7.38;;;5.05;;
67065;SDS011;53978;43.846;25.952;2022-12-07T11:57:58;8.52;;;5.40;;
67065;SDS011;53978;43.846;25.952;2022-12-07T12:00:28;8.37;;;5.37;;
67065;SDS011;53978;43.846;25.952;2022-12-07T12:02:58;9.38;;;5.57;;
67065;SDS011;53978;43.846;25.952;2022-12-07T12:05:27;9.13;;;5.03;;
67065;SDS011;53978;43.846;25.952;2022-12-07T12:08:38;8.10;;;5.28;;
67065;SDS011;53978;43.846;25.952;2022-12-07T12:11:00;9.63;;;6.07;;
67065;SDS011;53978;43.846;25.952;2022-12-07T12:16:19;10.77;;;6.30;;
67065;SDS011;53978;43.846;25.952;2022-12-07T12:21:20;10.98;;;5.90;;
67065;SDS011;53978;43.846;25.952;2022-12-07T12:23:55;9.65;;;6.05;;
67065;SDS011;53978;43.846;25.952;2022-12-07T12:26:24;10.77;;;5.85;;
67065;SDS011;53978;43.846;25.952;2022-12-07T12:33:46;12.35;;;6.70;;
67065;SDS011;53978;43.846;25.952;2022-12-07T12:47:01;10.20;;;6.10;;
67065;SDS011;53978;43.846;25.952;2022-12-07T12:50:31;11.95;;;6.53;;
67065;SDS011;53978;43.846;25.952;2022-12-07T12:52:49;11.48;;;6.32;;
67065;SDS011;53978;43.846;25.952;2022-12-07T12:55:17;11.55;;;6.50;;
67065;SDS011;53978;43.846;25.952;2022-12-07T12:57:46;13.13;;;7.22;;
67065;SDS011;53978;43.846;25.952;2022-12-07T13:00:22;11.60;;;6.93;;
67065;SDS011;53978;43.846;25.952;2022-12-07T13:02:53;11.23;;;6.38;;
67065;SDS011;53978;43.846;25.952;2022-12-07T13:05:20;13.27;;;7.30;;
67065;SDS011;53978;43.846;25.952;2022-12-07T13:10:20;14.25;;;6.93;;
67065;SDS011;53978;43.846;25.952;2022-12-07T13:12:59;14.15;;;6.88;;
67065;SDS011;53978;43.846;25.952;2022-12-07T13:15:32;12.93;;;7.18;;
67065;SDS011;53978;43.846;25.952;2022-12-07T13:17:58;13.18;;;7.43;;
67065;SDS011;53978;43.846;25.952;2022-12-07T13:20:45;17.63;;;9.77;;
67065;SDS011;53978;43.846;25.952;2022-12-07T13:23:12;15.98;;;7.88;;
67065;SDS011;53978;43.846;25.952;2022-12-07T13:25:48;18.40;;;10.25;;
67065;SDS011;53978;43.846;25.952;2022-12-07T13:28:17;18.90;;;9.23;;
67065;SDS011;53978;43.846;25.952;2022-12-07T13:30:50;17.92;;;9.52;;
67065;SDS011;53978;43.846;25.952;2022-12-07T13:33:24;16.88;;;9.75;;
67065;SDS011;53978;43.846;25.952;2022-12-07T13:35:56;18.13;;;8.85;;
67065;SDS011;53978;43.846;25.952;2022-12-07T13:41:03;14.90;;;8.20;;
67065;SDS011;53978;43.846;25.952;2022-12-07T13:43:30;14.73;;;8.75;;
67065;SDS011;53978;43.846;25.952;2022-12-07T13:45:56;27.30;;;10.60;;
67065;SDS011;53978;43.846;25.952;2022-12-07T13:48:32;24.25;;;12.02;;
67065;SDS011;53978;43.846;25.952;2022-12-07T13:51:01;25.00;;;10.73;;
67065;SDS011;53978;43.846;25.952;2022-12-07T13:53:32;20.55;;;10.43;;
67065;SDS011;53978;43.846;25.952;2022-12-07T13:55:58;21.25;;;10.52;;
67065;SDS011;53978;43.846;25.952;2022-12-07T13:58:25;19.70;;;10.15;;
67065;SDS011;53978;43.846;25.952;2022-12-07T14:00:52;20.02;;;10.50;;
67065;SDS011;53978;43.846;25.952;2022-12-07T14:05:46;18.42;;;9.95;;
67065;SDS011;53978;43.846;25.952;2022-12-07T14:10:41;21.20;;;10.07;;
67065;SDS011;53978;43.846;25.952;2022-12-07T14:16:01;18.02;;;9.13;;
67065;SDS011;53978;43.846;25.952;2022-12-07T14:18:28;21.02;;;9.38;;
67065;SDS011;53978;43.846;25.952;2022-12-07T14:21:13;19.05;;;9.18;;
67065;SDS011;53978;43.846;25.952;2022-12-07T14:23:43;16.80;;;9.00;;
67065;SDS011;53978;43.846;25.952;2022-12-07T14:26:26;17.10;;;9.40;;
67065;SDS011;53978;43.846;25.952;2022-12-07T14:28:52;18.73;;;9.50;;
67065;SDS011;53978;43.846;25.952;2022-12-07T14:31:18;19.27;;;9.95;;
67065;SDS011;53978;43.846;25.952;2022-12-07T14:33:46;18.15;;;10.02;;
67065;SDS011;53978;43.846;25.952;2022-12-07T14:36:12;18.13;;;9.82;;
67065;SDS011;53978;43.846;25.952;2022-12-07T14:38:38;22.45;;;10.68;;
67065;SDS011;53978;43.846;25.952;2022-12-07T14:41:04;23.73;;;10.23;;
67065;SDS011;53978;43.846;25.952;2022-12-07T14:43:57;18.65;;;9.88;;
67065;SDS011;53978;43.846;25.952;2022-12-07T14:46:22;21.55;;;10.93;;
67065;SDS011;53978;43.846;25.952;2022-12-07T14:48:48;17.90;;;9.88;;
67065;SDS011;53978;43.846;25.952;2022-12-07T14:51:13;26.38;;;12.02;;
67065;SDS011;53978;43.846;25.952;2022-12-07T14:53:41;22.25;;;10.68;;
67065;SDS011;53978;43.846;25.952;2022-12-07T14:56:09;21.13;;;10.70;;
67065;SDS011;53978;43.846;25.952;2022-12-07T14:58:35;27.70;;;11.13;;
67065;SDS011;53978;43.846;25.952;2022-12-07T15:01:00;24.77;;;11.38;;
67065;SDS011;53978;43.846;25.952;2022-12-07T15:03:26;22.92;;;10.30;;
67065;SDS011;53978;43.846;25.952;2022-12-07T15:05:51;23.65;;;10.95;;
67065;SDS011;53978;43.846;25.952;2022-12-07T15:08:17;21.33;;;10.63;;
67065;SDS011;53978;43.846;25.952;2022-12-07T15:10:43;23.20;;;10.85;;
67065;SDS011;53978;43.846;25.952;2022-12-07T15:13:09;22.20;;;11.52;;
67065;SDS011;53978;43.846;25.952;2022-12-07T15:15:55;22.23;;;9.77;;
67065;SDS011;53978;43.846;25.952;2022-12-07T15:18:21;25.10;;;10.68;;
67065;SDS011;53978;43.846;25.952;2022-12-07T15:20:49;21.73;;;10.60;;
67065;SDS011;53978;43.846;25.952;2022-12-07T15:23:14;22.00;;;11.13;;
67065;SDS011;53978;43.846;25.952;2022-12-07T15:25:40;20.92;;;10.25;;
67065;SDS011;53978;43.846;25.952;2022-12-07T15:28:09;21.73;;;10.40;;
67065;SDS011;53978;43.846;25.952;2022-12-07T15:30:36;24.02;;;10.73;;
67065;SDS011;53978;43.846;25.952;2022-12-07T15:33:05;19.98;;;10.05;;
67065;SDS011;53978;43.846;25.952;2022-12-07T15:35:31;26.27;;;11.52;;
67065;SDS011;53978;43.846;25.952;2022-12-07T15:37:56;21.65;;;10.63;;
67065;SDS011;53978;43.846;25.952;2022-12-07T15:40:22;21.10;;;10.82;;
67065;SDS011;53978;43.846;25.952;2022-12-07T15:42:47;30.40;;;12.85;;
67065;SDS011;53978;43.846;25.952;2022-12-07T15:45:12;24.05;;;12.38;;
67065;SDS011;53978;43.846;25.952;2022-12-07T15:47:41;20.88;;;10.48;;
67065;SDS011;53978;43.846;25.952;2022-12-07T15:50:09;19.80;;;9.55;;
67065;SDS011;53978;43.846;25.952;2022-12-07T15:52:38;21.30;;;10.50;;
67065;SDS011;53978;43.846;25.952;2022-12-07T15:55:06;21.45;;;9.82;;
67065;SDS011;53978;43.846;25.952;2022-12-07T15:57:32;20.95;;;9.88;;
67065;SDS011;53978;43.846;25.952;2022-12-07T15:59:58;18.80;;;9.35;;
67065;SDS011;53978;43.846;25.952;2022-12-07T16:02:24;18.70;;;9.10;;
67065;SDS011;53978;43.846;25.952;2022-12-07T16:04:50;17.95;;;9.20;;
67065;SDS011;53978;43.846;25.952;2022-12-07T16:07:16;18.55;;;9.77;;
67065;SDS011;53978;43.846;25.952;2022-12-07T16:09:42;19.08;;;9.57;;
67065;SDS011;53978;43.846;25.952;2022-12-07T16:12:09;21.85;;;9.15;;
67065;SDS011;53978;43.846;25.952;2022-12-07T16:14:35;17.20;;;9.73;;
67065;SDS011;53978;43.846;25.952;2022-12-07T16:17:01;20.05;;;9.63;;
67065;SDS011;53978;43.846;25.952;2022-12-07T16:19:26;19.52;;;9.60;;
67065;SDS011;53978;43.846;25.952;2022-12-07T16:21:52;18.58;;;9.38;;
67065;SDS011;53978;43.846;25.952;2022-12-07T16:24:17;17.35;;;8.32;;
67065;SDS011;53978;43.846;25.952;2022-12-07T16:26:43;15.75;;;8.55;;
67065;SDS011;53978;43.846;25.952;2022-12-07T16:29:11;19.40;;;9.25;;
67065;SDS011;53978;43.846;25.952;2022-12-07T16:31:37;17.50;;;8.52;;
67065;SDS011;53978;43.846;25.952;2022-12-07T16:34:02;22.90;;;9.10;;
67065;SDS011;53978;43.846;25.952;2022-12-07T16:36:28;22.85;;;9.45;;
67065;SDS011;53978;43.846;25.952;2022-12-07T16:38:53;21.27;;;8.55;;